Station Historical Data
Daily Summary for January 2, 2012 Units:  Both    English   Metric
« Previous Day
Next Day »
Daily Weekly Monthly Yearly Custom
  High: Low: Average:
Temperature: 40.9 °F /  4.9 °C 26.1 °F /  -3.3 °C 34 °F /  1.1 °C
Dew Point: 21.2 °F /  -6 °C 4.2 °F /  -15.4 °C 13.4 °F /  -10.3 °C
Humidity: 62% 31% 43%
Wind Speed: 24.0mph /  38.6km/h - 7mph /  11.3km/h
Wind Gust: 32.0mph /  51.5km/h - -
Wind- - WNW
Pressure: 30.40 in /  1029.3 hPa 30.25 in /  1024.3 hPa -
Precipitation: 0.00 in /  0 mm    
Historical Graphs
 
 
Tabular Data for January 2, 2012
Time Temperature Dew Point Pressure Wind Wind Speed Wind Gust Humidity Rainfall Rate (Hourly) Conditions
00:00 40.9 °F /  4.9 °C 21.2 °F /  -6 °C 30.32in /  1026.6hPa WNW 5.0mph /  8km/h 7.0mph /  11.3km/h 45% 0.00in /  0mm
00:01 40.7 °F /  4.8 °C 21.0 °F /  -6.1 °C 30.32in /  1026.6hPa NW 4.0mph /  6.4km/h 7.0mph /  11.3km/h 45% 0.00in /  0mm
00:07 40.7 °F /  4.8 °C 20.5 °F /  -6.4 °C 30.32in /  1026.6hPa WNW 3.0mph /  4.8km/h 10.0mph /  16.1km/h 44% 0.00in /  0mm
00:12 40.3 °F /  4.6 °C 20.7 °F /  -6.3 °C 30.32in /  1026.6hPa WNW 3.0mph /  4.8km/h 6.0mph /  9.7km/h 45% 0.00in /  0mm
00:17 40.3 °F /  4.6 °C 20.7 °F /  -6.3 °C 30.32in /  1026.6hPa NW 4.0mph /  6.4km/h 11.0mph /  17.7km/h 45% 0.00in /  0mm
00:22 40.1 °F /  4.5 °C 20.5 °F /  -6.4 °C 30.32in /  1026.6hPa WNW 2.0mph /  3.2km/h 8.0mph /  12.9km/h 45% 0.00in /  0mm
00:27 39.8 °F /  4.3 °C 20.7 °F /  -6.3 °C 30.32in /  1026.6hPa NW 2.0mph /  3.2km/h 5.0mph /  8km/h 46% 0.00in /  0mm
00:32 39.5 °F /  4.2 °C 20.5 °F /  -6.4 °C 30.32in /  1026.6hPa West 5.0mph /  8km/h 5.0mph /  8km/h 46% 0.00in /  0mm
00:37 39.2 °F /  4 °C 20.7 °F /  -6.3 °C 30.32in /  1026.6hPa NW 3.0mph /  4.8km/h 3.0mph /  4.8km/h 47% 0.00in /  0mm
00:42 39.0 °F /  3.9 °C 20.5 °F /  -6.4 °C 30.32in /  1026.6hPa WNW 2.0mph /  3.2km/h 4.0mph /  6.4km/h 47% 0.00in /  0mm
00:47 38.7 °F /  3.7 °C 20.2 °F /  -6.6 °C 30.32in /  1026.6hPa WNW 3.0mph /  4.8km/h 5.0mph /  8km/h 47% 0.00in /  0mm
00:52 38.7 °F /  3.7 °C 20.2 °F /  -6.6 °C 30.32in /  1026.6hPa WNW 5.0mph /  8km/h 6.0mph /  9.7km/h 47% 0.00in /  0mm
00:57 38.6 °F /  3.7 °C 20.6 °F /  -6.3 °C 30.32in /  1026.6hPa WNW 3.0mph /  4.8km/h 6.0mph /  9.7km/h 48% 0.00in /  0mm
01:02 38.5 °F /  3.6 °C 20.0 °F /  -6.7 °C 30.32in /  1026.6hPa NNW 4.0mph /  6.4km/h 4.0mph /  6.4km/h 47% 0.00in /  0mm
01:07 38.4 °F /  3.6 °C 19.9 °F /  -6.7 °C 30.32in /  1026.6hPa NW 7.0mph /  11.3km/h 7.0mph /  11.3km/h 47% 0.00in /  0mm
01:12 38.3 °F /  3.5 °C 20.4 °F /  -6.4 °C 30.31in /  1026.3hPa WNW 1.0mph /  1.6km/h 4.0mph /  6.4km/h 48% 0.00in /  0mm
01:17 38.1 °F /  3.4 °C 20.2 °F /  -6.6 °C 30.32in /  1026.6hPa NW 4.0mph /  6.4km/h 7.0mph /  11.3km/h 48% 0.00in /  0mm
01:22 38.0 °F /  3.3 °C 19.6 °F /  -6.9 °C 30.32in /  1026.6hPa WNW 2.0mph /  3.2km/h 3.0mph /  4.8km/h 47% 0.00in /  0mm
01:27 37.9 °F /  3.3 °C 20.0 °F /  -6.7 °C 30.31in /  1026.3hPa WNW 1.0mph /  1.6km/h 5.0mph /  8km/h 48% 0.00in /  0mm
01:32 37.5 °F /  3.1 °C 19.6 °F /  -6.9 °C 30.31in /  1026.3hPa WNW 1.0mph /  1.6km/h 3.0mph /  4.8km/h 48% 0.00in /  0mm
01:37 37.3 °F /  2.9 °C 19.4 °F /  -7 °C 30.31in /  1026.3hPa WNW 2.0mph /  3.2km/h 7.0mph /  11.3km/h 48% 0.00in /  0mm
01:42 37.2 °F /  2.9 °C 19.3 °F /  -7.1 °C 30.31in /  1026.3hPa West 5.0mph /  8km/h 5.0mph /  8km/h 48% 0.00in /  0mm
01:47 37.2 °F /  2.9 °C 18.8 °F /  -7.3 °C 30.31in /  1026.3hPa WNW 4.0mph /  6.4km/h 9.0mph /  14.5km/h 47% 0.00in /  0mm
01:52 37.1 °F /  2.8 °C 19.2 °F /  -7.1 °C 30.31in /  1026.3hPa NW 3.0mph /  4.8km/h 5.0mph /  8km/h 48% 0.00in /  0mm
01:57 36.9 °F /  2.7 °C 19.1 °F /  -7.2 °C 30.31in /  1026.3hPa WNW 3.0mph /  4.8km/h 4.0mph /  6.4km/h 48% 0.00in /  0mm
02:02 36.6 °F /  2.6 °C 18.8 °F /  -7.3 °C 30.30in /  1026hPa WNW 3.0mph /  4.8km/h 4.0mph /  6.4km/h 48% 0.00in /  0mm
02:07 36.5 °F /  2.5 °C 18.7 °F /  -7.4 °C 30.30in /  1026hPa NW 3.0mph /  4.8km/h 4.0mph /  6.4km/h 48% 0.00in /  0mm
02:12 36.5 °F /  2.5 °C 18.7 °F /  -7.4 °C 30.30in /  1026hPa WNW 2.0mph /  3.2km/h 5.0mph /  8km/h 48% 0.00in /  0mm
02:17 36.3 °F /  2.4 °C 18.5 °F /  -7.5 °C 30.31in /  1026.3hPa WNW 1.0mph /  1.6km/h 3.0mph /  4.8km/h 48% 0.00in /  0mm
02:22 36.1 °F /  2.3 °C 18.3 °F /  -7.6 °C 30.31in /  1026.3hPa NW 2.0mph /  3.2km/h 5.0mph /  8km/h 48% 0.00in /  0mm
02:27 35.8 °F /  2.1 °C 18.5 °F /  -7.5 °C 30.30in /  1026hPa WNW 2.0mph /  3.2km/h 4.0mph /  6.4km/h 49% 0.00in /  0mm
02:32 35.8 °F /  2.1 °C 18.5 °F /  -7.5 °C 30.31in /  1026.3hPa WNW 2.0mph /  3.2km/h 5.0mph /  8km/h 49% 0.00in /  0mm
02:37 35.7 °F /  2.1 °C 18.4 °F /  -7.6 °C 30.31in /  1026.3hPa WNW 4.0mph /  6.4km/h 6.0mph /  9.7km/h 49% 0.00in /  0mm
02:42 35.7 °F /  2.1 °C 18.4 °F /  -7.6 °C 30.31in /  1026.3hPa NW 2.0mph /  3.2km/h 5.0mph /  8km/h 49% 0.00in /  0mm
02:47 35.7 °F /  2.1 °C 18.0 °F /  -7.8 °C 30.31in /  1026.3hPa WNW 4.0mph /  6.4km/h 6.0mph /  9.7km/h 48% 0.00in /  0mm
02:52 35.8 °F /  2.1 °C 18.0 °F /  -7.8 °C 30.31in /  1026.3hPa WNW 6.0mph /  9.7km/h 8.0mph /  12.9km/h 48% 0.00in /  0mm
02:57 35.7 °F /  2.1 °C 18.4 °F /  -7.6 °C 30.31in /  1026.3hPa WNW 4.0mph /  6.4km/h 7.0mph /  11.3km/h 49% 0.00in /  0mm
03:02 35.6 °F /  2 °C 18.3 °F /  -7.6 °C 30.31in /  1026.3hPa NNW 3.0mph /  4.8km/h 7.0mph /  11.3km/h 49% 0.00in /  0mm
03:07 35.5 °F /  1.9 °C 17.8 °F /  -7.9 °C 30.31in /  1026.3hPa NNW 3.0mph /  4.8km/h 6.0mph /  9.7km/h 48% 0.00in /  0mm
03:13 35.5 °F /  1.9 °C 17.8 °F /  -7.9 °C 30.31in /  1026.3hPa NW 3.0mph /  4.8km/h 5.0mph /  8km/h 48% 0.00in /  0mm
03:18 35.3 °F /  1.8 °C 17.6 °F /  -8 °C 30.31in /  1026.3hPa NW 3.0mph /  4.8km/h 5.0mph /  8km/h 48% 0.00in /  0mm
03:23 35.5 °F /  1.9 °C 17.8 °F /  -7.9 °C 30.31in /  1026.3hPa NW 4.0mph /  6.4km/h 9.0mph /  14.5km/h 48% 0.00in /  0mm
03:28 35.5 °F /  1.9 °C 17.3 °F /  -8.2 °C 30.30in /  1026hPa WNW 3.0mph /  4.8km/h 8.0mph /  12.9km/h 47% 0.00in /  0mm
03:33 35.5 °F /  1.9 °C 17.3 °F /  -8.2 °C 30.30in /  1026hPa WNW 7.0mph /  11.3km/h 8.0mph /  12.9km/h 47% 0.00in /  0mm
03:38 35.5 °F /  1.9 °C 17.3 °F /  -8.2 °C 30.30in /  1026hPa WNW 6.0mph /  9.7km/h 8.0mph /  12.9km/h 47% 0.00in /  0mm
03:43 35.3 °F /  1.8 °C 17.6 °F /  -8 °C 30.30in /  1026hPa NW 3.0mph /  4.8km/h 6.0mph /  9.7km/h 48% 0.00in /  0mm
03:48 35.0 °F /  1.7 °C 17.3 °F /  -8.2 °C 30.30in /  1026hPa NW 7.0mph /  11.3km/h 7.0mph /  11.3km/h 48% 0.00in /  0mm
03:53 35.1 °F /  1.7 °C 17.4 °F /  -8.1 °C 30.30in /  1026hPa NW 5.0mph /  8km/h 8.0mph /  12.9km/h 48% 0.00in /  0mm
03:58 34.9 °F /  1.6 °C 17.2 °F /  -8.2 °C 30.30in /  1026hPa NW 4.0mph /  6.4km/h 6.0mph /  9.7km/h 48% 0.00in /  0mm
04:03 34.8 °F /  1.6 °C 17.6 °F /  -8 °C 30.30in /  1026hPa WNW 2.0mph /  3.2km/h 6.0mph /  9.7km/h 49% 0.00in /  0mm
04:08 34.7 °F /  1.5 °C 17.0 °F /  -8.3 °C 30.30in /  1026hPa WNW 5.0mph /  8km/h 6.0mph /  9.7km/h 48% 0.00in /  0mm
04:13 34.5 °F /  1.4 °C 17.3 °F /  -8.2 °C 30.29in /  1025.6hPa WNW 7.0mph /  11.3km/h 7.0mph /  11.3km/h 49% 0.00in /  0mm
04:18 34.6 °F /  1.4 °C 16.9 °F /  -8.4 °C 30.29in /  1025.6hPa WNW 6.0mph /  9.7km/h 6.0mph /  9.7km/h 48% 0.00in /  0mm
04:23 34.6 °F /  1.4 °C 16.9 °F /  -8.4 °C 30.30in /  1026hPa NW 4.0mph /  6.4km/h 8.0mph /  12.9km/h 48% 0.00in /  0mm
04:28 34.6 °F /  1.4 °C 16.9 °F /  -8.4 °C 30.29in /  1025.6hPa WNW 5.0mph /  8km/h 8.0mph /  12.9km/h 48% 0.00in /  0mm
04:33 34.5 °F /  1.4 °C 16.9 °F /  -8.4 °C 30.29in /  1025.6hPa NW 3.0mph /  4.8km/h 5.0mph /  8km/h 48% 0.00in /  0mm
04:38 34.2 °F /  1.2 °C 17.0 °F /  -8.3 °C 30.29in /  1025.6hPa WNW 4.0mph /  6.4km/h 4.0mph /  6.4km/h 49% 0.00in /  0mm
04:43 34.1 °F /  1.2 °C 17.0 °F /  -8.3 °C 30.29in /  1025.6hPa West 2.0mph /  3.2km/h 5.0mph /  8km/h 49% 0.00in /  0mm
04:48 34.0 °F /  1.1 °C 16.9 °F /  -8.4 °C 30.30in /  1026hPa WNW 4.0mph /  6.4km/h 7.0mph /  11.3km/h 49% 0.00in /  0mm
04:53 33.7 °F /  0.9 °C 17.0 °F /  -8.3 °C 30.29in /  1025.6hPa WNW 4.0mph /  6.4km/h 5.0mph /  8km/h 50% 0.00in /  0mm
04:58 33.5 °F /  0.8 °C 17.3 °F /  -8.2 °C 30.30in /  1026hPa NW 3.0mph /  4.8km/h 6.0mph /  9.7km/h 51% 0.00in /  0mm
05:03 33.2 °F /  0.7 °C 17.0 °F /  -8.3 °C 30.29in /  1025.6hPa WNW 2.0mph /  3.2km/h 3.0mph /  4.8km/h 51% 0.00in /  0mm
05:08 33.1 °F /  0.6 °C 17.4 °F /  -8.1 °C 30.30in /  1026hPa West 2.0mph /  3.2km/h 4.0mph /  6.4km/h 52% 0.00in /  0mm
05:13 32.8 °F /  0.4 °C 17.1 °F /  -8.3 °C 30.30in /  1026hPa WNW 2.0mph /  3.2km/h 4.0mph /  6.4km/h 52% 0.00in /  0mm
05:18 32.5 °F /  0.3 °C 17.3 °F /  -8.2 °C 30.30in /  1026hPa WNW 2.0mph /  3.2km/h 3.0mph /  4.8km/h 53% 0.00in /  0mm
05:23 32.3 °F /  0.2 °C 17.5 °F /  -8.1 °C 30.30in /  1026hPa WNW 2.0mph /  3.2km/h 3.0mph /  4.8km/h 54% 0.00in /  0mm
05:28 32.3 °F /  0.2 °C 17.5 °F /  -8.1 °C 30.30in /  1026hPa WNW 2.0mph /  3.2km/h 4.0mph /  6.4km/h 54% 0.00in /  0mm
05:33 32.3 °F /  0.2 °C 17.5 °F /  -8.1 °C 30.30in /  1026hPa NW 5.0mph /  8km/h 5.0mph /  8km/h 54% 0.00in /  0mm
05:38 32.2 °F /  0.1 °C 17.4 °F /  -8.1 °C 30.30in /  1026hPa WNW 3.0mph /  4.8km/h 5.0mph /  8km/h 54% 0.00in /  0mm
05:43 32.2 °F /  0.1 °C 17.9 °F /  -7.8 °C 30.30in /  1026hPa WNW 2.0mph /  3.2km/h 4.0mph /  6.4km/h 55% 0.00in /  0mm
05:48 32.2 °F /  0.1 °C 17.9 °F /  -7.8 °C 30.30in /  1026hPa WNW 4.0mph /  6.4km/h 5.0mph /  8km/h 55% 0.00in /  0mm
05:53 32.2 °F /  0.1 °C 17.9 °F /  -7.8 °C 30.30in /  1026hPa West 2.0mph /  3.2km/h 4.0mph /  6.4km/h 55% 0.00in /  0mm
05:58 32.1 °F /  0.1 °C 17.8 °F /  -7.9 °C 30.30in /  1026hPa West 5.0mph /  8km/h 6.0mph /  9.7km/h 55% 0.00in /  0mm
06:03 32.1 °F /  0.1 °C 17.8 °F /  -7.9 °C 30.30in /  1026hPa WNW 2.0mph /  3.2km/h 5.0mph /  8km/h 55% 0.00in /  0mm
06:08 32.0 °F /  0 °C 18.1 °F /  -7.7 °C 30.30in /  1026hPa West 3.0mph /  4.8km/h 4.0mph /  6.4km/h 56% 0.00in /  0mm
06:13 31.8 °F /  -0.1 °C 17.9 °F /  -7.8 °C 30.30in /  1026hPa WNW 5.0mph /  8km/h 6.0mph /  9.7km/h 56% 0.00in /  0mm
06:18 31.7 °F /  -0.2 °C 17.8 °F /  -7.9 °C 30.30in /  1026hPa WNW 4.0mph /  6.4km/h 6.0mph /  9.7km/h 56% 0.00in /  0mm
06:23 31.6 °F /  -0.2 °C 17.7 °F /  -7.9 °C 30.30in /  1026hPa WNW 7.0mph /  11.3km/h 7.0mph /  11.3km/h 56% 0.00in /  0mm
06:28 31.6 °F /  -0.2 °C 18.1 °F /  -7.7 °C 30.30in /  1026hPa WNW 5.0mph /  8km/h 8.0mph /  12.9km/h 57% 0.00in /  0mm
06:33 31.4 °F /  -0.3 °C 17.9 °F /  -7.8 °C 30.30in /  1026hPa WNW 3.0mph /  4.8km/h 5.0mph /  8km/h 57% 0.00in /  0mm
06:38 31.1 °F /  -0.5 °C 18.1 °F /  -7.7 °C 30.30in /  1026hPa West 6.0mph /  9.7km/h 6.0mph /  9.7km/h 58% 0.00in /  0mm
06:43 31.2 °F /  -0.4 °C 18.2 °F /  -7.7 °C 30.30in /  1026hPa WNW 4.0mph /  6.4km/h 8.0mph /  12.9km/h 58% 0.00in /  0mm
06:48 31.0 °F /  -0.6 °C 18.4 °F /  -7.6 °C 30.30in /  1026hPa West 5.0mph /  8km/h 7.0mph /  11.3km/h 59% 0.00in /  0mm
06:53 31.1 °F /  -0.5 °C 18.1 °F /  -7.7 °C 30.30in /  1026hPa WNW 4.0mph /  6.4km/h 6.0mph /  9.7km/h 58% 0.00in /  0mm
06:58 31.0 °F /  -0.6 °C 18.4 °F /  -7.6 °C 30.30in /  1026hPa West 3.0mph /  4.8km/h 6.0mph /  9.7km/h 59% 0.00in /  0mm
07:03 30.8 °F /  -0.7 °C 18.2 °F /  -7.7 °C 30.30in /  1026hPa West 3.0mph /  4.8km/h 5.0mph /  8km/h 59% 0.00in /  0mm
07:08 30.7 °F /  -0.7 °C 18.5 °F /  -7.5 °C 30.30in /  1026hPa WNW 4.0mph /  6.4km/h 6.0mph /  9.7km/h 60% 0.00in /  0mm
07:13 30.4 °F /  -0.9 °C 18.6 °F /  -7.4 °C 30.31in /  1026.3hPa WNW 3.0mph /  4.8km/h 5.0mph /  8km/h 61% 0.00in /  0mm
07:18 30.3 °F /  -0.9 °C 18.1 °F /  -7.7 °C 30.31in /  1026.3hPa West 2.0mph /  3.2km/h 4.0mph /  6.4km/h 60% 0.00in /  0mm
07:23 30.2 °F /  -1 °C 18.4 °F /  -7.6 °C 30.30in /  1026hPa West 1.0mph /  1.6km/h 4.0mph /  6.4km/h 61% 0.00in /  0mm
07:28 30.1 °F /  -1.1 °C 18.3 °F /  -7.6 °C 30.31in /  1026.3hPa WNW 1.0mph /  1.6km/h 4.0mph /  6.4km/h 61% 0.00in /  0mm
07:33 30.0 °F /  -1.1 °C 18.2 °F /  -7.7 °C 30.31in /  1026.3hPa West 3.0mph /  4.8km/h 5.0mph /  8km/h 61% 0.00in /  0mm
07:38 30.1 °F /  -1.1 °C 18.3 °F /  -7.6 °C 30.31in /  1026.3hPa WNW 3.0mph /  4.8km/h 5.0mph /  8km/h 61% 0.00in /  0mm
07:43 30.0 °F /  -1.1 °C 18.2 °F /  -7.7 °C 30.31in /  1026.3hPa West 3.0mph /  4.8km/h 4.0mph /  6.4km/h 61% 0.00in /  0mm
07:48 29.9 °F /  -1.2 °C 18.5 °F /  -7.5 °C 30.31in /  1026.3hPa West 2.0mph /  3.2km/h 4.0mph /  6.4km/h 62% 0.00in /  0mm
07:53 29.6 °F /  -1.3 °C 18.2 °F /  -7.7 °C 30.31in /  1026.3hPa West 2.0mph /  3.2km/h 4.0mph /  6.4km/h 62% 0.00in /  0mm
07:58 29.7 °F /  -1.3 °C 17.9 °F /  -7.8 °C 30.31in /  1026.3hPa West 1.0mph /  1.6km/h 4.0mph /  6.4km/h 61% 0.00in /  0mm
08:04 29.7 °F /  -1.3 °C 17.9 °F /  -7.8 °C 30.31in /  1026.3hPa West 3.0mph /  4.8km/h 4.0mph /  6.4km/h 61% 0.00in /  0mm
08:09 29.8 °F /  -1.2 °C 18.0 °F /  -7.8 °C 30.31in /  1026.3hPa West 2.0mph /  3.2km/h 4.0mph /  6.4km/h 61% 0.00in /  0mm
08:13 29.9 °F /  -1.2 °C 18.1 °F /  -7.7 °C 30.31in /  1026.3hPa West 3.0mph /  4.8km/h 5.0mph /  8km/h 61% 0.00in /  0mm
08:19 30.1 °F /  -1.1 °C 18.3 °F /  -7.6 °C 30.32in /  1026.6hPa WNW 3.0mph /  4.8km/h 6.0mph /  9.7km/h 61% 0.00in /  0mm
08:24 30.2 °F /  -1 °C 18.4 °F /  -7.6 °C 30.32in /  1026.6hPa West 3.0mph /  4.8km/h 5.0mph /  8km/h 61% 0.00in /  0mm
08:29 30.4 °F /  -0.9 °C 18.2 °F /  -7.7 °C 30.32in /  1026.6hPa WNW 3.0mph /  4.8km/h 6.0mph /  9.7km/h 60% 0.00in /  0mm
08:34 30.7 °F /  -0.7 °C 18.1 °F /  -7.7 °C 30.33in /  1027hPa WNW 5.0mph /  8km/h 6.0mph /  9.7km/h 59% 0.00in /  0mm
08:39 31.0 °F /  -0.6 °C 18.4 °F /  -7.6 °C 30.33in /  1027hPa WNW 3.0mph /  4.8km/h 5.0mph /  8km/h 59% 0.00in /  0mm
08:44 31.2 °F /  -0.4 °C 18.5 °F /  -7.5 °C 30.33in /  1027hPa WNW 5.0mph /  8km/h 6.0mph /  9.7km/h 59% 0.00in /  0mm
08:49 31.4 °F /  -0.3 °C 17.9 °F /  -7.8 °C 30.33in /  1027hPa West 3.0mph /  4.8km/h 8.0mph /  12.9km/h 57% 0.00in /  0mm
08:54 31.6 °F /  -0.2 °C 18.1 °F /  -7.7 °C 30.33in /  1027hPa West 2.0mph /  3.2km/h 5.0mph /  8km/h 57% 0.00in /  0mm
08:59 31.9 °F /  -0.1 °C 18.4 °F /  -7.6 °C 30.33in /  1027hPa West 5.0mph /  8km/h 6.0mph /  9.7km/h 57% 0.00in /  0mm
09:04 32.1 °F /  0.1 °C 17.8 °F /  -7.9 °C 30.33in /  1027hPa WNW 3.0mph /  4.8km/h 10.0mph /  16.1km/h 55% 0.00in /  0mm
09:09 32.4 °F /  0.2 °C 18.0 °F /  -7.8 °C 30.33in /  1027hPa West 8.0mph /  12.9km/h 11.0mph /  17.7km/h 55% 0.00in /  0mm
09:14 32.7 °F /  0.4 °C 17.9 °F /  -7.8 °C 30.33in /  1027hPa WNW 10.0mph /  16.1km/h 12.0mph /  19.3km/h 54% 0.00in /  0mm
09:19 32.9 °F /  0.5 °C 18.1 °F /  -7.7 °C 30.33in /  1027hPa WNW 3.0mph /  4.8km/h 14.0mph /  22.5km/h 54% 0.00in /  0mm
09:24 33.1 °F /  0.6 °C 18.3 °F /  -7.6 °C 30.34in /  1027.3hPa WNW 13.0mph /  20.9km/h 13.0mph /  20.9km/h 54% 0.00in /  0mm
09:29 33.2 °F /  0.7 °C 17.5 °F /  -8.1 °C 30.34in /  1027.3hPa West 6.0mph /  9.7km/h 14.0mph /  22.5km/h 52% 0.00in /  0mm
09:34 33.3 °F /  0.7 °C 18.0 °F /  -7.8 °C 30.34in /  1027.3hPa NW 13.0mph /  20.9km/h 13.0mph /  20.9km/h 53% 0.00in /  0mm
09:39 33.5 °F /  0.8 °C 17.8 °F /  -7.9 °C 30.34in /  1027.3hPa West 7.0mph /  11.3km/h 15.0mph /  24.1km/h 52% 0.00in /  0mm
09:44 33.8 °F /  1 °C 18.0 °F /  -7.8 °C 30.34in /  1027.3hPa WNW 13.0mph /  20.9km/h 13.0mph /  20.9km/h 52% 0.00in /  0mm
09:49 34.0 °F /  1.1 °C 18.2 °F /  -7.7 °C 30.35in /  1027.7hPa West 9.0mph /  14.5km/h 11.0mph /  17.7km/h 52% 0.00in /  0mm
09:54 34.4 °F /  1.3 °C 18.2 °F /  -7.7 °C 30.35in /  1027.7hPa WNW 7.0mph /  11.3km/h 11.0mph /  17.7km/h 51% 0.00in /  0mm
09:59 34.7 °F /  1.5 °C 18.0 °F /  -7.8 °C 30.35in /  1027.7hPa WNW 5.0mph /  8km/h 13.0mph /  20.9km/h 50% 0.00in /  0mm
10:05 35.0 °F /  1.7 °C 17.8 °F /  -7.9 °C 30.35in /  1027.7hPa West 11.0mph /  17.7km/h 12.0mph /  19.3km/h 49% 0.00in /  0mm
10:09 35.1 °F /  1.7 °C 17.4 °F /  -8.1 °C 30.35in /  1027.7hPa West 9.0mph /  14.5km/h 15.0mph /  24.1km/h 48% 0.00in /  0mm
10:15 35.2 °F /  1.8 °C 16.5 °F /  -8.6 °C 30.35in /  1027.7hPa WNW 9.0mph /  14.5km/h 20.0mph /  32.2km/h 46% 0.00in /  0mm
10:20 35.2 °F /  1.8 °C 16.5 °F /  -8.6 °C 30.35in /  1027.7hPa WNW 11.0mph /  17.7km/h 19.0mph /  30.6km/h 46% 0.00in /  0mm
10:25 35.6 °F /  2 °C 16.9 °F /  -8.4 °C 30.35in /  1027.7hPa WNW 14.0mph /  22.5km/h 15.0mph /  24.1km/h 46% 0.00in /  0mm
10:30 35.7 °F /  2.1 °C 15.4 °F /  -9.2 °C 30.35in /  1027.7hPa WNW 11.0mph /  17.7km/h 16.0mph /  25.7km/h 43% 0.00in /  0mm
10:35 35.9 °F /  2.2 °C 15.1 °F /  -9.4 °C 30.35in /  1027.7hPa WNW 14.0mph /  22.5km/h 17.0mph /  27.4km/h 42% 0.00in /  0mm
10:40 36.2 °F /  2.3 °C 14.8 °F /  -9.6 °C 30.35in /  1027.7hPa West 10.0mph /  16.1km/h 14.0mph /  22.5km/h 41% 0.00in /  0mm
10:45 36.3 °F /  2.4 °C 14.9 °F /  -9.5 °C 30.35in /  1027.7hPa NW 7.0mph /  11.3km/h 17.0mph /  27.4km/h 41% 0.00in /  0mm
10:50 36.4 °F /  2.4 °C 15.5 °F /  -9.2 °C 30.35in /  1027.7hPa West 7.0mph /  11.3km/h 18.0mph /  29km/h 42% 0.00in /  0mm
10:55 36.5 °F /  2.5 °C 15.1 °F /  -9.4 °C 30.35in /  1027.7hPa WNW 7.0mph /  11.3km/h 21.0mph /  33.8km/h 41% 0.00in /  0mm
11:00 36.5 °F /  2.5 °C 13.3 °F /  -10.4 °C 30.35in /  1027.7hPa West 10.0mph /  16.1km/h 16.0mph /  25.7km/h 38% 0.00in /  0mm
11:05 36.7 °F /  2.6 °C 14.7 °F /  -9.6 °C 30.35in /  1027.7hPa West 8.0mph /  12.9km/h 14.0mph /  22.5km/h 40% 0.00in /  0mm
11:10 37.0 °F /  2.8 °C 14.4 °F /  -9.8 °C 30.35in /  1027.7hPa WNW 8.0mph /  12.9km/h 15.0mph /  24.1km/h 39% 0.00in /  0mm
11:15 37.0 °F /  2.8 °C 14.4 °F /  -9.8 °C 30.35in /  1027.7hPa West 7.0mph /  11.3km/h 14.0mph /  22.5km/h 39% 0.00in /  0mm
11:20 37.2 °F /  2.9 °C 13.9 °F /  -10.1 °C 30.34in /  1027.3hPa West 11.0mph /  17.7km/h 17.0mph /  27.4km/h 38% 0.00in /  0mm
11:25 37.6 °F /  3.1 °C 14.3 °F /  -9.8 °C 30.34in /  1027.3hPa West 10.0mph /  16.1km/h 16.0mph /  25.7km/h 38% 0.00in /  0mm
11:30 37.6 °F /  3.1 °C 11.8 °F /  -11.2 °C 30.34in /  1027.3hPa WNW 18.0mph /  29km/h 22.0mph /  35.4km/h 34% 0.00in /  0mm
11:35 37.7 °F /  3.2 °C 13.8 °F /  -10.1 °C 30.34in /  1027.3hPa WNW 9.0mph /  14.5km/h 13.0mph /  20.9km/h 37% 0.00in /  0mm
11:40 38.1 °F /  3.4 °C 14.1 °F /  -9.9 °C 30.33in /  1027hPa NW 7.0mph /  11.3km/h 17.0mph /  27.4km/h 37% 0.00in /  0mm
11:45 37.9 °F /  3.3 °C 13.4 °F /  -10.3 °C 30.33in /  1027hPa WNW 7.0mph /  11.3km/h 23.0mph /  37km/h 36% 0.00in /  0mm
11:50 37.9 °F /  3.3 °C 13.4 °F /  -10.3 °C 30.33in /  1027hPa WNW 17.0mph /  27.4km/h 17.0mph /  27.4km/h 36% 0.00in /  0mm
11:55 38.0 °F /  3.3 °C 14.1 °F /  -9.9 °C 30.33in /  1027hPa WNW 10.0mph /  16.1km/h 17.0mph /  27.4km/h 37% 0.00in /  0mm
12:00 38.1 °F /  3.4 °C 14.1 °F /  -9.9 °C 30.32in /  1026.6hPa WNW 12.0mph /  19.3km/h 21.0mph /  33.8km/h 37% 0.00in /  0mm
12:05 38.2 °F /  3.4 °C 14.2 °F /  -9.9 °C 30.32in /  1026.6hPa WNW 9.0mph /  14.5km/h 17.0mph /  27.4km/h 37% 0.00in /  0mm
12:10 38.2 °F /  3.4 °C 13.6 °F /  -10.2 °C 30.32in /  1026.6hPa West 13.0mph /  20.9km/h 20.0mph /  32.2km/h 36% 0.00in /  0mm
12:15 37.9 °F /  3.3 °C 14.0 °F /  -10 °C 30.31in /  1026.3hPa WNW 18.0mph /  29km/h 19.0mph /  30.6km/h 37% 0.00in /  0mm
12:20 38.1 °F /  3.4 °C 13.5 °F /  -10.3 °C 30.31in /  1026.3hPa West 13.0mph /  20.9km/h 17.0mph /  27.4km/h 36% 0.00in /  0mm
12:25 38.1 °F /  3.4 °C 13.5 °F /  -10.3 °C 30.31in /  1026.3hPa West 8.0mph /  12.9km/h 20.0mph /  32.2km/h 36% 0.00in /  0mm
12:30 38.3 °F /  3.5 °C 12.4 °F /  -10.9 °C 30.30in /  1026hPa West 17.0mph /  27.4km/h 20.0mph /  32.2km/h 34% 0.00in /  0mm
12:36 38.5 °F /  3.6 °C 12.6 °F /  -10.8 °C 30.30in /  1026hPa West 11.0mph /  17.7km/h 17.0mph /  27.4km/h 34% 0.00in /  0mm
12:41 38.8 °F /  3.8 °C 13.5 °F /  -10.3 °C 30.30in /  1026hPa West 13.0mph /  20.9km/h 20.0mph /  32.2km/h 35% 0.00in /  0mm
12:46 38.9 °F /  3.8 °C 12.3 °F /  -10.9 °C 30.30in /  1026hPa NW 10.0mph /  16.1km/h 22.0mph /  35.4km/h 33% 0.00in /  0mm
12:51 38.8 °F /  3.8 °C 12.9 °F /  -10.6 °C 30.29in /  1025.6hPa West 9.0mph /  14.5km/h 19.0mph /  30.6km/h 34% 0.00in /  0mm
12:56 39.2 °F /  4 °C 12.5 °F /  -10.8 °C 30.28in /  1025.3hPa WNW 7.0mph /  11.3km/h 16.0mph /  25.7km/h 33% 0.00in /  0mm
13:01 39.4 °F /  4.1 °C 13.4 °F /  -10.3 °C 30.28in /  1025.3hPa NW 10.0mph /  16.1km/h 19.0mph /  30.6km/h 34% 0.00in /  0mm
13:06 39.3 °F /  4.1 °C 11.9 °F /  -11.2 °C 30.28in /  1025.3hPa WNW 14.0mph /  22.5km/h 17.0mph /  27.4km/h 32% 0.00in /  0mm
13:11 39.5 °F /  4.2 °C 12.8 °F /  -10.7 °C 30.28in /  1025.3hPa West 9.0mph /  14.5km/h 14.0mph /  22.5km/h 33% 0.00in /  0mm
13:16 39.3 °F /  4.1 °C 11.2 °F /  -11.6 °C 30.27in /  1024.9hPa NW 11.0mph /  17.7km/h 21.0mph /  33.8km/h 31% 0.00in /  0mm
13:21 39.9 °F /  4.4 °C 13.1 °F /  -10.5 °C 30.28in /  1025.3hPa WNW 16.0mph /  25.7km/h 16.0mph /  25.7km/h 33% 0.00in /  0mm
13:26 39.9 °F /  4.4 °C 12.4 °F /  -10.9 °C 30.27in /  1024.9hPa West 12.0mph /  19.3km/h 19.0mph /  30.6km/h 32% 0.00in /  0mm
13:31 39.9 °F /  4.4 °C 13.1 °F /  -10.5 °C 30.28in /  1025.3hPa WNW 8.0mph /  12.9km/h 16.0mph /  25.7km/h 33% 0.00in /  0mm
13:36 40.0 °F /  4.4 °C 12.5 °F /  -10.8 °C 30.27in /  1024.9hPa West 16.0mph /  25.7km/h 17.0mph /  27.4km/h 32% 0.00in /  0mm
13:41 39.8 °F /  4.3 °C 12.4 °F /  -10.9 °C 30.27in /  1024.9hPa WNW 12.0mph /  19.3km/h 19.0mph /  30.6km/h 32% 0.00in /  0mm
13:46 39.6 °F /  4.2 °C 11.5 °F /  -11.4 °C 30.26in /  1024.6hPa WNW 18.0mph /  29km/h 25.0mph /  40.2km/h 31% 0.00in /  0mm
13:51 39.1 °F /  3.9 °C 13.1 °F /  -10.5 °C 30.26in /  1024.6hPa West 12.0mph /  19.3km/h 24.0mph /  38.6km/h 34% 0.00in /  0mm
13:56 39.1 °F /  3.9 °C 11.8 °F /  -11.2 °C 30.26in /  1024.6hPa WNW 11.0mph /  17.7km/h 21.0mph /  33.8km/h 32% 0.00in /  0mm
14:01 39.2 °F /  4 °C 12.5 °F /  -10.8 °C 30.26in /  1024.6hPa NNW 11.0mph /  17.7km/h 19.0mph /  30.6km/h 33% 0.00in /  0mm
14:06 39.3 °F /  4.1 °C 12.6 °F /  -10.8 °C 30.25in /  1024.3hPa WNW 15.0mph /  24.1km/h 20.0mph /  32.2km/h 33% 0.00in /  0mm
14:11 39.7 °F /  4.3 °C 13.0 °F /  -10.6 °C 30.25in /  1024.3hPa WNW 9.0mph /  14.5km/h 18.0mph /  29km/h 33% 0.00in /  0mm
14:16 39.1 °F /  3.9 °C 11.8 °F /  -11.2 °C 30.25in /  1024.3hPa NW 11.0mph /  17.7km/h 27.0mph /  43.5km/h 32% 0.00in /  0mm
14:21 39.0 °F /  3.9 °C 12.4 °F /  -10.9 °C 30.25in /  1024.3hPa WNW 19.0mph /  30.6km/h 21.0mph /  33.8km/h 33% 0.00in /  0mm
14:26 39.0 °F /  3.9 °C 12.4 °F /  -10.9 °C 30.25in /  1024.3hPa WNW 10.0mph /  16.1km/h 21.0mph /  33.8km/h 33% 0.00in /  0mm
14:31 38.8 °F /  3.8 °C 10.8 °F /  -11.8 °C 30.25in /  1024.3hPa West 15.0mph /  24.1km/h 32.0mph /  51.5km/h 31% 0.00in /  0mm
14:36 38.5 °F /  3.6 °C 11.9 °F /  -11.2 °C 30.25in /  1024.3hPa WNW 15.0mph /  24.1km/h 27.0mph /  43.5km/h 33% 0.00in /  0mm
14:41 38.6 °F /  3.7 °C 12.0 °F /  -11.1 °C 30.25in /  1024.3hPa West 13.0mph /  20.9km/h 19.0mph /  30.6km/h 33% 0.00in /  0mm
14:46 38.9 °F /  3.8 °C 12.3 °F /  -10.9 °C 30.25in /  1024.3hPa NW 11.0mph /  17.7km/h 25.0mph /  40.2km/h 33% 0.00in /  0mm
14:52 39.1 °F /  3.9 °C 12.4 °F /  -10.9 °C 30.25in /  1024.3hPa WNW 15.0mph /  24.1km/h 21.0mph /  33.8km/h 33% 0.00in /  0mm
14:57 38.5 °F /  3.6 °C 12.6 °F /  -10.8 °C 30.25in /  1024.3hPa WNW 23.0mph /  37km/h 23.0mph /  37km/h 34% 0.00in /  0mm
15:02 38.4 °F /  3.6 °C 11.8 °F /  -11.2 °C 30.25in /  1024.3hPa WNW 16.0mph /  25.7km/h 22.0mph /  35.4km/h 33% 0.00in /  0mm
15:07 38.6 °F /  3.7 °C 12.0 °F /  -11.1 °C 30.25in /  1024.3hPa WNW 15.0mph /  24.1km/h 21.0mph /  33.8km/h 33% 0.00in /  0mm
15:12 38.2 °F /  3.4 °C 12.3 °F /  -10.9 °C 30.25in /  1024.3hPa NW 19.0mph /  30.6km/h 22.0mph /  35.4km/h 34% 0.00in /  0mm
15:17 38.0 °F /  3.3 °C 12.8 °F /  -10.7 °C 30.25in /  1024.3hPa West 13.0mph /  20.9km/h 22.0mph /  35.4km/h 35% 0.00in /  0mm
15:22 38.1 °F /  3.4 °C 12.9 °F /  -10.6 °C 30.25in /  1024.3hPa West 16.0mph /  25.7km/h 23.0mph /  37km/h 35% 0.00in /  0mm
15:27 38.4 °F /  3.6 °C 11.8 °F /  -11.2 °C 30.25in /  1024.3hPa NW 15.0mph /  24.1km/h 18.0mph /  29km/h 33% 0.00in /  0mm
15:32 38.1 °F /  3.4 °C 12.2 °F /  -11 °C 30.26in /  1024.6hPa WNW 7.0mph /  11.3km/h 17.0mph /  27.4km/h 34% 0.00in /  0mm
15:37 37.8 °F /  3.2 °C 12.6 °F /  -10.8 °C 30.26in /  1024.6hPa NW 14.0mph /  22.5km/h 26.0mph /  41.8km/h 35% 0.00in /  0mm
15:42 37.8 °F /  3.2 °C 13.3 °F /  -10.4 °C 30.26in /  1024.6hPa NW 9.0mph /  14.5km/h 20.0mph /  32.2km/h 36% 0.00in /  0mm
15:47 38.0 °F /  3.3 °C 13.4 °F /  -10.3 °C 30.26in /  1024.6hPa WNW 14.0mph /  22.5km/h 22.0mph /  35.4km/h 36% 0.00in /  0mm
15:52 37.9 °F /  3.3 °C 12.7 °F /  -10.7 °C 30.26in /  1024.6hPa WNW 11.0mph /  17.7km/h 21.0mph /  33.8km/h 35% 0.00in /  0mm
15:57 37.8 °F /  3.2 °C 12.6 °F /  -10.8 °C 30.26in /  1024.6hPa West 19.0mph /  30.6km/h 21.0mph /  33.8km/h 35% 0.00in /  0mm
16:02 37.5 °F /  3.1 °C 12.4 °F /  -10.9 °C 30.27in /  1024.9hPa WNW 14.0mph /  22.5km/h 22.0mph /  35.4km/h 35% 0.00in /  0mm
16:07 37.1 °F /  2.8 °C 10.0 °F /  -12.2 °C 30.28in /  1025.3hPa WNW 20.0mph /  32.2km/h 25.0mph /  40.2km/h 32% 0.00in /  0mm
16:12 36.8 °F /  2.7 °C 10.4 °F /  -12 °C 30.28in /  1025.3hPa WNW 12.0mph /  19.3km/h 25.0mph /  40.2km/h 33% 0.00in /  0mm
16:17 36.5 °F /  2.5 °C 10.8 °F /  -11.8 °C 30.28in /  1025.3hPa WNW 16.0mph /  25.7km/h 16.0mph /  25.7km/h 34% 0.00in /  0mm
16:22 36.6 °F /  2.6 °C 10.9 °F /  -11.7 °C 30.28in /  1025.3hPa WNW 24.0mph /  38.6km/h 24.0mph /  38.6km/h 34% 0.00in /  0mm
16:27 36.5 °F /  2.5 °C 9.5 °F /  -12.5 °C 30.29in /  1025.6hPa WNW 20.0mph /  32.2km/h 23.0mph /  37km/h 32% 0.00in /  0mm
16:32 36.3 °F /  2.4 °C 9.3 °F /  -12.6 °C 30.29in /  1025.6hPa WNW 13.0mph /  20.9km/h 18.0mph /  29km/h 32% 0.00in /  0mm
16:37 36.3 °F /  2.4 °C 9.3 °F /  -12.6 °C 30.30in /  1026hPa West 7.0mph /  11.3km/h 24.0mph /  38.6km/h 32% 0.00in /  0mm
16:42 36.2 °F /  2.3 °C 9.2 °F /  -12.7 °C 30.30in /  1026hPa NNW 19.0mph /  30.6km/h 19.0mph /  30.6km/h 32% 0.00in /  0mm
16:47 35.7 °F /  2.1 °C 8.8 °F /  -12.9 °C 30.30in /  1026hPa WNW 19.0mph /  30.6km/h 22.0mph /  35.4km/h 32% 0.00in /  0mm
16:52 35.5 °F /  1.9 °C 8.6 °F /  -13 °C 30.30in /  1026hPa WNW 18.0mph /  29km/h 19.0mph /  30.6km/h 32% 0.00in /  0mm
16:57 35.3 °F /  1.8 °C 9.1 °F /  -12.7 °C 30.30in /  1026hPa WNW 8.0mph /  12.9km/h 15.0mph /  24.1km/h 33% 0.00in /  0mm
17:02 35.4 °F /  1.9 °C 9.2 °F /  -12.7 °C 30.30in /  1026hPa NW 11.0mph /  17.7km/h 17.0mph /  27.4km/h 33% 0.00in /  0mm
17:07 35.3 °F /  1.8 °C 9.8 °F /  -12.3 °C 30.31in /  1026.3hPa WNW 14.0mph /  22.5km/h 15.0mph /  24.1km/h 34% 0.00in /  0mm
17:12 35.1 °F /  1.7 °C 8.9 °F /  -12.8 °C 30.31in /  1026.3hPa WNW 10.0mph /  16.1km/h 17.0mph /  27.4km/h 33% 0.00in /  0mm
17:17 34.9 °F /  1.6 °C 8.7 °F /  -12.9 °C 30.31in /  1026.3hPa West 24.0mph /  38.6km/h 24.0mph /  38.6km/h 33% 0.00in /  0mm
17:22 34.6 °F /  1.4 °C 8.5 °F /  -13.1 °C 30.31in /  1026.3hPa WNW 10.0mph /  16.1km/h 20.0mph /  32.2km/h 33% 0.00in /  0mm
17:27 34.4 °F /  1.3 °C 8.3 °F /  -13.2 °C 30.31in /  1026.3hPa WNW 9.0mph /  14.5km/h 23.0mph /  37km/h 33% 0.00in /  0mm
17:32 34.1 °F /  1.2 °C 8.7 °F /  -12.9 °C 30.31in /  1026.3hPa West 9.0mph /  14.5km/h 15.0mph /  24.1km/h 34% 0.00in /  0mm
17:37 33.9 °F /  1.1 °C 9.1 °F /  -12.7 °C 30.31in /  1026.3hPa West 10.0mph /  16.1km/h 20.0mph /  32.2km/h 35% 0.00in /  0mm
17:42 33.6 °F /  0.9 °C 8.2 °F /  -13.2 °C 30.31in /  1026.3hPa NNW 19.0mph /  30.6km/h 19.0mph /  30.6km/h 34% 0.00in /  0mm
17:47 33.5 °F /  0.8 °C 8.8 °F /  -12.9 °C 30.31in /  1026.3hPa West 10.0mph /  16.1km/h 15.0mph /  24.1km/h 35% 0.00in /  0mm
17:52 33.2 °F /  0.7 °C 8.5 °F /  -13.1 °C 30.31in /  1026.3hPa NW 7.0mph /  11.3km/h 13.0mph /  20.9km/h 35% 0.00in /  0mm
17:57 33.0 °F /  0.6 °C 8.4 °F /  -13.1 °C 30.32in /  1026.6hPa WNW 4.0mph /  6.4km/h 12.0mph /  19.3km/h 35% 0.00in /  0mm
18:02 32.8 °F /  0.4 °C 8.8 °F /  -12.9 °C 30.32in /  1026.6hPa WNW 10.0mph /  16.1km/h 17.0mph /  27.4km/h 36% 0.00in /  0mm
18:07 32.8 °F /  0.4 °C 7.5 °F /  -13.6 °C 30.32in /  1026.6hPa WNW 8.0mph /  12.9km/h 17.0mph /  27.4km/h 34% 0.00in /  0mm
18:12 32.7 °F /  0.4 °C 7.4 °F /  -13.7 °C 30.32in /  1026.6hPa WNW 10.0mph /  16.1km/h 17.0mph /  27.4km/h 34% 0.00in /  0mm
18:17 32.6 °F /  0.3 °C 8.0 °F /  -13.3 °C 30.32in /  1026.6hPa NW 6.0mph /  9.7km/h 11.0mph /  17.7km/h 35% 0.00in /  0mm
18:22 32.3 °F /  0.2 °C 7.7 °F /  -13.5 °C 30.32in /  1026.6hPa WNW 9.0mph /  14.5km/h 13.0mph /  20.9km/h 35% 0.00in /  0mm
18:28 32.2 °F /  0.1 °C 7.6 °F /  -13.6 °C 30.33in /  1027hPa NW 4.0mph /  6.4km/h 13.0mph /  20.9km/h 35% 0.00in /  0mm
18:33 32.1 °F /  0.1 °C 7.6 °F /  -13.6 °C 30.33in /  1027hPa WNW 3.0mph /  4.8km/h 11.0mph /  17.7km/h 35% 0.00in /  0mm
18:38 31.8 °F /  -0.1 °C 7.9 °F /  -13.4 °C 30.33in /  1027hPa WNW 4.0mph /  6.4km/h 8.0mph /  12.9km/h 36% 0.00in /  0mm
18:43 31.7 °F /  -0.2 °C 7.8 °F /  -13.4 °C 30.33in /  1027hPa NW 8.0mph /  12.9km/h 9.0mph /  14.5km/h 36% 0.00in /  0mm
18:48 31.6 °F /  -0.2 °C 7.7 °F /  -13.5 °C 30.33in /  1027hPa WNW 3.0mph /  4.8km/h 9.0mph /  14.5km/h 36% 0.00in /  0mm
18:53 31.4 °F /  -0.3 °C 7.6 °F /  -13.6 °C 30.33in /  1027hPa WNW 6.0mph /  9.7km/h 9.0mph /  14.5km/h 36% 0.00in /  0mm
18:58 31.4 °F /  -0.3 °C 7.6 °F /  -13.6 °C 30.34in /  1027.3hPa NW 5.0mph /  8km/h 10.0mph /  16.1km/h 36% 0.00in /  0mm
19:03 31.4 °F /  -0.3 °C 7.6 °F /  -13.6 °C 30.34in /  1027.3hPa WNW 6.0mph /  9.7km/h 10.0mph /  16.1km/h 36% 0.00in /  0mm
19:08 31.6 °F /  -0.2 °C 6.5 °F /  -14.2 °C 30.34in /  1027.3hPa WNW 10.0mph /  16.1km/h 17.0mph /  27.4km/h 34% 0.00in /  0mm
19:13 31.6 °F /  -0.2 °C 6.5 °F /  -14.2 °C 30.34in /  1027.3hPa NNW 6.0mph /  9.7km/h 12.0mph /  19.3km/h 34% 0.00in /  0mm
19:18 31.4 °F /  -0.3 °C 5.6 °F /  -14.7 °C 30.34in /  1027.3hPa WNW 10.0mph /  16.1km/h 14.0mph /  22.5km/h 33% 0.00in /  0mm
19:23 31.2 °F /  -0.4 °C 5.5 °F /  -14.7 °C 30.34in /  1027.3hPa NW 3.0mph /  4.8km/h 9.0mph /  14.5km/h 33% 0.00in /  0mm
19:28 31.0 °F /  -0.6 °C 5.3 °F /  -14.8 °C 30.34in /  1027.3hPa WNW 5.0mph /  8km/h 10.0mph /  16.1km/h 33% 0.00in /  0mm
19:33 31.2 °F /  -0.4 °C 4.8 °F /  -15.1 °C 30.35in /  1027.7hPa WNW 8.0mph /  12.9km/h 12.0mph /  19.3km/h 32% 0.00in /  0mm
19:38 31.0 °F /  -0.6 °C 5.3 °F /  -14.8 °C 30.35in /  1027.7hPa NW 6.0mph /  9.7km/h 9.0mph /  14.5km/h 33% 0.00in /  0mm
19:43 31.0 °F /  -0.6 °C 4.6 °F /  -15.2 °C 30.35in /  1027.7hPa WNW 10.0mph /  16.1km/h 13.0mph /  20.9km/h 32% 0.00in /  0mm
19:48 31.0 °F /  -0.6 °C 4.6 °F /  -15.2 °C 30.35in /  1027.7hPa WNW 9.0mph /  14.5km/h 11.0mph /  17.7km/h 32% 0.00in /  0mm
19:53 30.9 °F /  -0.6 °C 4.5 °F /  -15.3 °C 30.35in /  1027.7hPa West 5.0mph /  8km/h 10.0mph /  16.1km/h 32% 0.00in /  0mm
19:58 30.8 °F /  -0.7 °C 4.4 °F /  -15.3 °C 30.35in /  1027.7hPa NW 10.0mph /  16.1km/h 10.0mph /  16.1km/h 32% 0.00in /  0mm
20:03 30.7 °F /  -0.7 °C 4.3 °F /  -15.4 °C 30.35in /  1027.7hPa WNW 4.0mph /  6.4km/h 9.0mph /  14.5km/h 32% 0.00in /  0mm
20:08 30.6 °F /  -0.8 °C 4.3 °F /  -15.4 °C 30.35in /  1027.7hPa NW 6.0mph /  9.7km/h 11.0mph /  17.7km/h 32% 0.00in /  0mm
20:13 30.5 °F /  -0.8 °C 4.2 °F /  -15.4 °C 30.35in /  1027.7hPa WNW 10.0mph /  16.1km/h 10.0mph /  16.1km/h 32% 0.00in /  0mm
20:18 30.4 °F /  -0.9 °C 4.8 °F /  -15.1 °C 30.35in /  1027.7hPa WNW 7.0mph /  11.3km/h 9.0mph /  14.5km/h 33% 0.00in /  0mm
20:23 30.0 °F /  -1.1 °C 4.4 °F /  -15.3 °C 30.35in /  1027.7hPa WNW 6.0mph /  9.7km/h 8.0mph /  12.9km/h 33% 0.00in /  0mm
20:28 30.0 °F /  -1.1 °C 4.4 °F /  -15.3 °C 30.36in /  1028hPa WNW 6.0mph /  9.7km/h 7.0mph /  11.3km/h 33% 0.00in /  0mm
20:33 29.9 °F /  -1.2 °C 5.0 °F /  -15 °C 30.35in /  1027.7hPa NW 3.0mph /  4.8km/h 6.0mph /  9.7km/h 34% 0.00in /  0mm
20:38 29.6 °F /  -1.3 °C 4.7 °F /  -15.2 °C 30.36in /  1028hPa WNW 5.0mph /  8km/h 6.0mph /  9.7km/h 34% 0.00in /  0mm
20:43 29.5 °F /  -1.4 °C 4.6 °F /  -15.2 °C 30.35in /  1027.7hPa WNW 7.0mph /  11.3km/h 7.0mph /  11.3km/h 34% 0.00in /  0mm
20:48 29.4 °F /  -1.4 °C 4.5 °F /  -15.3 °C 30.36in /  1028hPa WNW 4.0mph /  6.4km/h 6.0mph /  9.7km/h 34% 0.00in /  0mm
20:53 29.2 °F /  -1.6 °C 5.0 °F /  -15 °C 30.36in /  1028hPa WNW 4.0mph /  6.4km/h 6.0mph /  9.7km/h 35% 0.00in /  0mm
20:58 29.0 °F /  -1.7 °C 5.4 °F /  -14.8 °C 30.36in /  1028hPa WNW 4.0mph /  6.4km/h 6.0mph /  9.7km/h 36% 0.00in /  0mm
21:04 28.5 °F /  -1.9 °C 5.6 °F /  -14.7 °C 30.36in /  1028hPa West 3.0mph /  4.8km/h 3.0mph /  4.8km/h 37% 0.00in /  0mm
21:09 28.3 °F /  -2.1 °C 6.0 °F /  -14.4 °C 30.36in /  1028hPa WNW 1.0mph /  1.6km/h 4.0mph /  6.4km/h 38% 0.00in /  0mm
21:14 28.1 °F /  -2.2 °C 5.8 °F /  -14.6 °C 30.36in /  1028hPa WNW 1.0mph /  1.6km/h 3.0mph /  4.8km/h 38% 0.00in /  0mm
21:19 28.0 °F /  -2.2 °C 5.7 °F /  -14.6 °C 30.36in /  1028hPa West 3.0mph /  4.8km/h 3.0mph /  4.8km/h 38% 0.00in /  0mm
21:24 27.9 °F /  -2.3 °C 5.6 °F /  -14.7 °C 30.36in /  1028hPa West 2.0mph /  3.2km/h 3.0mph /  4.8km/h 38% 0.00in /  0mm
21:29 27.7 °F /  -2.4 °C 6.0 °F /  -14.4 °C 30.36in /  1028hPa WNW 2.0mph /  3.2km/h 4.0mph /  6.4km/h 39% 0.00in /  0mm
21:34 27.5 °F /  -2.5 °C 6.4 °F /  -14.2 °C 30.36in /  1028hPa WNW 2.0mph /  3.2km/h 3.0mph /  4.8km/h 40% 0.00in /  0mm
21:39 27.3 °F /  -2.6 °C 6.2 °F /  -14.3 °C 30.36in /  1028hPa WNW 4.0mph /  6.4km/h 5.0mph /  8km/h 40% 0.00in /  0mm
21:44 27.3 °F /  -2.6 °C 6.2 °F /  -14.3 °C 30.36in /  1028hPa WNW 2.0mph /  3.2km/h 4.0mph /  6.4km/h 40% 0.00in /  0mm
21:49 27.3 °F /  -2.6 °C 6.2 °F /  -14.3 °C 30.37in /  1028.3hPa NW 3.0mph /  4.8km/h 5.0mph /  8km/h 40% 0.00in /  0mm
21:54 27.4 °F /  -2.6 °C 6.3 °F /  -14.3 °C 30.37in /  1028.3hPa NW 6.0mph /  9.7km/h 7.0mph /  11.3km/h 40% 0.00in /  0mm
21:59 27.5 °F /  -2.5 °C 5.8 °F /  -14.6 °C 30.37in /  1028.3hPa NW 3.0mph /  4.8km/h 7.0mph /  11.3km/h 39% 0.00in /  0mm
22:04 27.7 °F /  -2.4 °C 6.0 °F /  -14.4 °C 30.37in /  1028.3hPa WNW 4.0mph /  6.4km/h 7.0mph /  11.3km/h 39% 0.00in /  0mm
22:09 27.6 °F /  -2.4 °C 5.9 °F /  -14.5 °C 30.37in /  1028.3hPa WNW 3.0mph /  4.8km/h 6.0mph /  9.7km/h 39% 0.00in /  0mm
22:14 27.4 °F /  -2.6 °C 6.3 °F /  -14.3 °C 30.37in /  1028.3hPa WNW 2.0mph /  3.2km/h 5.0mph /  8km/h 40% 0.00in /  0mm
22:19 27.4 °F /  -2.6 °C 6.3 °F /  -14.3 °C 30.37in /  1028.3hPa WNW 3.0mph /  4.8km/h 7.0mph /  11.3km/h 40% 0.00in /  0mm
22:24 27.4 °F /  -2.6 °C 6.3 °F /  -14.3 °C 30.38in /  1028.7hPa WNW 6.0mph /  9.7km/h 7.0mph /  11.3km/h 40% 0.00in /  0mm
22:29 27.5 °F /  -2.5 °C 6.4 °F /  -14.2 °C 30.38in /  1028.7hPa NW 5.0mph /  8km/h 8.0mph /  12.9km/h 40% 0.00in /  0mm
22:34 27.5 °F /  -2.5 °C 6.9 °F /  -13.9 °C 30.38in /  1028.7hPa WNW 4.0mph /  6.4km/h 6.0mph /  9.7km/h 41% 0.00in /  0mm
22:39 27.3 °F /  -2.6 °C 6.7 °F /  -14.1 °C 30.38in /  1028.7hPa NW 4.0mph /  6.4km/h 7.0mph /  11.3km/h 41% 0.00in /  0mm
22:44 27.1 °F /  -2.7 °C 7.1 °F /  -13.8 °C 30.38in /  1028.7hPa WNW 4.0mph /  6.4km/h 5.0mph /  8km/h 42% 0.00in /  0mm
22:49 26.9 °F /  -2.8 °C 7.4 °F /  -13.7 °C 30.38in /  1028.7hPa WNW 3.0mph /  4.8km/h 6.0mph /  9.7km/h 43% 0.00in /  0mm
22:54 26.7 °F /  -2.9 °C 7.2 °F /  -13.8 °C 30.38in /  1028.7hPa NW 4.0mph /  6.4km/h 6.0mph /  9.7km/h 43% 0.00in /  0mm
22:59 26.7 °F /  -2.9 °C 7.2 °F /  -13.8 °C 30.38in /  1028.7hPa WNW 2.0mph /  3.2km/h 5.0mph /  8km/h 43% 0.00in /  0mm
23:04 26.6 °F /  -3 °C 7.6 °F /  -13.6 °C 30.38in /  1028.7hPa NW 4.0mph /  6.4km/h 7.0mph /  11.3km/h 44% 0.00in /  0mm
23:09 26.7 °F /  -2.9 °C 7.7 °F /  -13.5 °C 30.39in /  1029hPa NW 4.0mph /  6.4km/h 7.0mph /  11.3km/h 44% 0.00in /  0mm
23:14 26.3 °F /  -3.2 °C 7.9 °F /  -13.4 °C 30.39in /  1029hPa NW 4.0mph /  6.4km/h 5.0mph /  8km/h 45% 0.00in /  0mm
23:19 26.3 °F /  -3.2 °C 7.9 °F /  -13.4 °C 30.39in /  1029hPa NW 6.0mph /  9.7km/h 6.0mph /  9.7km/h 45% 0.00in /  0mm
23:25 26.4 °F /  -3.1 °C 7.9 °F /  -13.4 °C 30.39in /  1029hPa NW 7.0mph /  11.3km/h 7.0mph /  11.3km/h 45% 0.00in /  0mm
23:30 26.2 °F /  -3.2 °C 8.3 °F /  -13.2 °C 30.40in /  1029.3hPa West 11.0mph /  17.7km/h 11.0mph /  17.7km/h 46% 0.00in /  0mm
23:35 26.5 °F /  -3.1 °C 8.5 °F /  -13.1 °C 30.39in /  1029hPa WNW 3.0mph /  4.8km/h 10.0mph /  16.1km/h 46% 0.00in /  0mm
23:40 26.5 °F /  -3.1 °C 8.5 °F /  -13.1 °C 30.40in /  1029.3hPa WNW 10.0mph /  16.1km/h 10.0mph /  16.1km/h 46% 0.00in /  0mm
23:45 26.5 °F /  -3.1 °C 9.0 °F /  -12.8 °C 30.40in /  1029.3hPa NW 6.0mph /  9.7km/h 9.0mph /  14.5km/h 47% 0.00in /  0mm
23:50 26.3 °F /  -3.2 °C 9.3 °F /  -12.6 °C 30.40in /  1029.3hPa NNW 4.0mph /  6.4km/h 6.0mph /  9.7km/h 48% 0.00in /  0mm
23:55 26.1 °F /  -3.3 °C 9.6 °F /  -12.4 °C 30.40in /  1029.3hPa NNW 6.0mph /  9.7km/h 7.0mph /  11.3km/h 49% 0.00in /  0mm
Compliments of Weather Underground